HKNW METAR and TAF | Updated Today

HKNW METAR

Nairobi Wilson Airport

Observation time: 34 min. ago

HKNW 292000Z 00000KT 9999 BKN026 18/14 Q1022

Need help? Read our tutorial on how to read METARs or read the parsed version below.

Nairobi Wilson Airport (HKNW) METAR

  • Weather conditions on Thu, 29 Sep 2022 20:00:00 +0000 (34 min. ago):
  • Present conditions: Dry
  • Clouds: Broken sky at 792 meters
  • Visibility: Greater than 10 km
  • Wind: Calm
  • Temperature: 18 celsius
  • Dew point: 14 celsius
  • Pressure: 1022 millibars
  • Remarks: None


Useful to know...

HKNW TAF

Nairobi Wilson Airport

TAF HKNW 291700Z 2918/3018 03005KT 9999 SCT021 BECMG 3002/3005 BKN017 BECMG 3008/3011 11010KT SCT028
Observation time: 3:34 hr. ago
Need help? Read our tutorial on how to read TAFs or read the parsed version below.

Parsed version of TAF for Nairobi Wilson Airport (HKNW)

  • From 29 September at 18:00 UTC, to day 30 of the month at 18:00 UTC
  • Clouds: Scattered at 640 meters
  • Visibility: Greater than 10 km
  • Wind: 30 degrees at 5
  • Expected to arise soon, from 30 September at 02:00 UTC, to day 30 of the month at 05:00 UTC
  • Clouds: Broken sky at 518 meters
  • Expected to arise soon, from 30 September at 08:00 UTC, to day 30 of the month at 11:00 UTC
  • Clouds: Scattered at 853 meters
  • Wind: 110 degrees at 10